Current Weather

Chhatrapati Shivaji Intl

Chhatrapati Shivaji Intl, India (VABB)

Report from: Saturday, March 2, 2024 2:00 AM IST
Current time: Saturday, March 2, 2024 2:51 AM IST

Nearby weather – Weather history – Daily summaries
Weather forecast

Present weatherHaze
Temperature27.0°C (80.6°F)
Heat index29.0°C (84.2°F)
Dew point21.0°C (69.8°F)
Winds 4 kts (2.1 m/s, 4.6 mph) West-Northwest (300°)
Visibility1.6 mi. (2.5 km)
Altimeter29.91 in.Hg (1013 mB)
Relative humidity70 %
Density altitude1,728 ft. (527 m)
Remarks No significant changes expected in the next two hours
Flight conditions Instrument Meteorological Conditions
Raw dataVABB 012030Z 30004KT 2500 HZ NSC 27/21 Q1013 NOSIG
An unhandled exception has occurred. See browser dev tools for details. Reload 🗙